Time;durP1;ratioP1;P1;durP2;ratioP2;P2;SDS_P1;SDS_P2;PMS_P1;PMS_P2;Temp;Humidity;BMP_temperature;BMP_pressure;BME280_temperature;BME280_humidity;BME280_pressure;Samples;Min_cycle;Max_cycle;Signal;HPM_P1;HPM_P2
2022/06/28 00:00:28;;;;;;;5.53;3.25;;;15.90;99.90;;;;;;4970896;28;20524;-68
2022/06/28 00:02:54;;;;;;;5.50;2.85;;;15.90;99.90;;;;;;4970735;28;20038;-68
2022/06/28 00:05:23;;;;;;;5.50;2.90;;;15.90;99.90;;;;;;4970979;28;20034;-68
2022/06/28 00:07:49;;;;;;;5.55;2.95;;;16.00;99.90;;;;;;4970355;28;20066;-68
2022/06/28 00:10:16;;;;;;;5.88;2.70;;;16.00;99.90;;;;;;4970696;28;20066;-68
2022/06/28 00:12:42;;;;;;;4.90;3.00;;;16.10;99.90;;;;;;4969923;28;20049;-67
2022/06/28 00:17:55;;;;;;;4.88;2.80;;;16.10;99.90;;;;;;4973732;28;20345;-68
2022/06/28 00:20:21;;;;;;;6.03;3.15;;;16.00;99.90;;;;;;4973955;28;20023;-68
2022/06/28 00:22:47;;;;;;;5.72;3.17;;;16.00;99.90;;;;;;4973935;28;20564;-67
2022/06/28 00:25:14;;;;;;;4.47;2.75;;;16.00;99.90;;;;;;4973759;28;20499;-67
2022/06/28 00:27:40;;;;;;;4.28;2.97;;;16.00;99.90;;;;;;4972925;28;20030;-68
2022/06/28 00:30:08;;;;;;;7.57;3.10;;;16.00;99.90;;;;;;4972261;28;20259;-67
2022/06/28 00:32:34;;;;;;;4.60;3.00;;;15.90;99.90;;;;;;4971852;28;20077;-67
2022/06/28 00:35:01;;;;;;;6.03;3.30;;;16.00;99.90;;;;;;4973773;28;20042;-68
2022/06/28 00:37:27;;;;;;;5.97;3.20;;;16.00;99.90;;;;;;4973290;28;20027;-68
2022/06/28 00:39:53;;;;;;;4.75;3.08;;;16.00;99.90;;;;;;4973496;28;20027;-67
2022/06/28 00:42:19;;;;;;;5.88;3.20;;;16.10;99.90;;;;;;4972956;28;20037;-68
2022/06/28 00:44:46;;;;;;;6.97;3.10;;;16.00;99.90;;;;;;4973425;28;20093;-68
2022/06/28 00:47:13;;;;;;;7.03;3.53;;;15.90;99.90;;;;;;4973530;28;20034;-67
2022/06/28 00:49:41;;;;;;;5.30;2.88;;;15.90;99.90;;;;;;4973037;28;20031;-67
2022/06/28 00:52:08;;;;;;;6.13;3.30;;;16.00;99.90;;;;;;4973364;28;20045;-68
2022/06/28 00:54:34;;;;;;;4.75;3.13;;;16.00;99.90;;;;;;4973004;28;20057;-68
2022/06/28 00:57:00;;;;;;;5.72;3.00;;;16.10;99.90;;;;;;4970512;28;20060;-68
2022/06/28 00:59:26;;;;;;;6.07;3.72;;;16.10;99.90;;;;;;4972784;28;20510;-68
2022/06/28 01:01:55;;;;;;;3.85;2.85;;;16.00;99.90;;;;;;4973295;28;20037;-68
2022/06/28 01:04:20;;;;;;;9.27;3.60;;;16.00;99.90;;;;;;4973765;28;20419;-68
2022/06/28 01:06:47;;;;;;;7.07;3.53;;;16.00;99.90;;;;;;4972378;28;20113;-68
2022/06/28 01:09:12;;;;;;;6.60;3.15;;;15.90;99.90;;;;;;4972272;28;20118;-68
2022/06/28 01:11:39;;;;;;;5.88;3.22;;;15.90;99.90;;;;;;4971161;28;20030;-68
2022/06/28 01:14:07;;;;;;;6.20;3.15;;;15.90;99.90;;;;;;4973250;28;20041;-68
2022/06/28 01:16:59;;;;;;;4.65;3.28;;;16.00;99.90;;;;;;4972065;28;20031;-68
2022/06/28 01:19:37;;;;;;;6.25;3.25;;;16.00;99.90;;;;;;4957121;28;20041;-68
2022/06/28 01:22:12;;;;;;;6.97;3.60;;;15.90;99.90;;;;;;4971596;28;20082;-68
2022/06/28 01:24:38;;;;;;;6.65;3.75;;;15.90;99.90;;;;;;4971583;28;20097;-68
2022/06/28 01:27:12;;;;;;;4.75;3.35;;;15.80;99.90;;;;;;4970285;28;20023;-68
2022/06/28 01:29:38;;;;;;;7.03;3.80;;;15.80;99.90;;;;;;4972932;28;20018;-68
2022/06/28 01:32:18;;;;;;;6.15;3.75;;;15.70;99.90;;;;;;4970936;28;20063;-68
2022/06/28 01:34:44;;;;;;;7.93;3.50;;;15.70;99.90;;;;;;4971020;28;20551;-68
2022/06/28 01:37:11;;;;;;;4.90;3.38;;;15.70;99.90;;;;;;4971125;28;20399;-68
2022/06/28 01:39:37;;;;;;;5.45;2.97;;;15.70;99.90;;;;;;4971095;28;20026;-68
2022/06/28 01:42:04;;;;;;;5.25;3.40;;;15.60;99.90;;;;;;4954606;28;20031;-68
2022/06/28 01:44:31;;;;;;;5.45;3.50;;;15.70;99.90;;;;;;4971497;28;20026;-68
2022/06/28 01:47:16;;;;;;;6.43;3.67;;;15.70;99.90;;;;;;4971009;28;20023;-68
2022/06/28 01:50:00;;;;;;;7.35;3.47;;;15.70;99.90;;;;;;4972369;28;20046;-68
2022/06/28 01:52:30;;;;;;;7.28;3.88;;;15.60;99.90;;;;;;4970823;28;20035;-68
2022/06/28 01:55:04;;;;;;;7.05;3.78;;;15.60;99.90;;;;;;4970937;28;20089;-68
2022/06/28 01:57:34;;;;;;;6.65;3.90;;;15.60;99.90;;;;;;4970289;28;20035;-68
2022/06/28 02:00:00;;;;;;;7.03;3.88;;;15.60;99.90;;;;;;4970775;28;20314;-68
2022/06/28 02:02:47;;;;;;;6.53;3.67;;;15.50;99.90;;;;;;4970676;28;20395;-68
2022/06/28 02:05:32;;;;;;;7.10;4.03;;;15.60;99.90;;;;;;4972279;28;20041;-68
2022/06/28 02:07:59;;;;;;;7.03;3.80;;;15.60;99.90;;;;;;4970697;28;20037;-68
2022/06/28 02:10:31;;;;;;;6.40;3.90;;;15.50;99.90;;;;;;4955288;28;20034;-68
2022/06/28 02:12:58;;;;;;;5.63;3.58;;;15.50;99.90;;;;;;4970181;28;20086;-68
2022/06/28 02:15:24;;;;;;;7.40;4.32;;;15.50;99.90;;;;;;4970556;28;20463;-68
2022/06/28 02:17:50;;;;;;;6.50;4.00;;;15.60;99.90;;;;;;4970274;28;20100;-68
2022/06/28 02:20:17;;;;;;;7.05;4.07;;;15.50;99.90;;;;;;4970063;28;20038;-68
2022/06/28 02:22:44;;;;;;;8.65;4.38;;;15.50;99.90;;;;;;4970222;28;20037;-68
2022/06/28 02:25:10;;;;;;;6.72;4.00;;;15.50;99.90;;;;;;4970437;28;20034;-68
2022/06/28 02:27:36;;;;;;;5.30;3.80;;;15.60;99.90;;;;;;4969769;28;20373;-68
2022/06/28 02:30:03;;;;;;;6.68;4.28;;;15.60;99.90;;;;;;4970359;28;20030;-68
2022/06/28 02:32:28;;;;;;;8.82;4.40;;;15.60;99.90;;;;;;4970216;28;20082;-68
2022/06/28 02:40:24;;;;;;;9.65;4.40;;;15.60;99.90;;;;;;4971737;28;20496;-68
2022/06/28 02:42:55;;;;;;;7.63;4.80;;;15.50;99.90;;;;;;4969772;28;20518;-68
2022/06/28 02:45:23;;;;;;;6.40;4.35;;;15.50;99.90;;;;;;4972070;28;20041;-68
2022/06/28 02:47:50;;;;;;;7.72;4.68;;;15.40;99.90;;;;;;4971837;28;20101;-68
2022/06/28 02:50:16;;;;;;;8.98;5.07;;;15.40;99.90;;;;;;4970390;28;20039;-68
2022/06/28 02:52:42;;;;;;;7.30;4.75;;;15.40;99.90;;;;;;4970265;28;20415;-68
2022/06/28 02:55:09;;;;;;;7.63;4.57;;;15.40;99.90;;;;;;4971135;28;20030;-68
2022/06/28 02:57:36;;;;;;;6.85;4.47;;;15.40;99.90;;;;;;4968971;28;20023;-68
2022/06/28 03:00:08;;;;;;;6.57;4.10;;;15.40;99.90;;;;;;4969309;28;20031;-68
2022/06/28 03:02:35;;;;;;;8.15;4.72;;;15.40;99.90;;;;;;4971139;28;20336;-68
2022/06/28 03:05:04;;;;;;;8.63;5.03;;;15.40;99.90;;;;;;4969732;28;20185;-68
2022/06/28 03:07:30;;;;;;;6.78;5.18;;;15.40;99.90;;;;;;4969399;28;20042;-68
2022/06/28 03:09:56;;;;;;;8.13;4.72;;;15.40;99.90;;;;;;4969483;28;20046;-68
2022/06/28 03:12:22;;;;;;;8.32;5.20;;;15.40;99.90;;;;;;4970398;28;20423;-68
2022/06/28 03:14:49;;;;;;;8.32;5.15;;;15.40;99.90;;;;;;4969684;28;20502;-68
2022/06/28 03:17:14;;;;;;;8.15;5.28;;;15.40;99.90;;;;;;4969308;28;20027;-67
2022/06/28 03:19:41;;;;;;;10.82;5.50;;;15.30;99.90;;;;;;4971469;28;20391;-68
2022/06/28 03:22:06;;;;;;;8.75;5.75;;;15.30;99.90;;;;;;4970180;28;20037;-68
2022/06/28 03:27:08;;;;;;;9.93;5.90;;;15.30;99.90;;;;;;4984481;28;20061;-65
2022/06/28 03:29:34;;;;;;;8.63;5.70;;;15.30;99.90;;;;;;4970085;28;20042;-64
2022/06/28 03:32:04;;;;;;;9.52;5.82;;;15.30;99.90;;;;;;4969945;28;20510;-64
2022/06/28 03:34:30;;;;;;;11.85;5.63;;;15.30;99.90;;;;;;4972475;28;20081;-65
2022/06/28 03:36:56;;;;;;;9.13;5.90;;;15.30;99.90;;;;;;4972143;28;20563;-65
2022/06/28 03:39:48;;;;;;;10.63;5.72;;;15.30;99.90;;;;;;4969618;28;20026;-68
2022/06/28 03:42:15;;;;;;;9.90;5.85;;;15.30;99.90;;;;;;4969969;28;20030;-64
2022/06/28 03:44:43;;;;;;;10.57;6.68;;;15.30;99.90;;;;;;4953452;28;20487;-65
2022/06/28 03:47:09;;;;;;;13.38;7.10;;;15.30;99.90;;;;;;4985603;28;20122;-65
2022/06/28 03:49:37;;;;;;;10.60;6.53;;;15.30;99.90;;;;;;4971520;28;20047;-65
2022/06/28 03:52:18;;;;;;;10.52;6.40;;;15.30;99.90;;;;;;4973137;28;20118;-65
2022/06/28 03:55:10;;;;;;;11.48;6.70;;;15.30;99.90;;;;;;4969518;28;20039;-65
2022/06/28 03:57:41;;;;;;;9.73;7.05;;;15.20;99.90;;;;;;4973385;28;20616;-65
2022/06/28 04:00:09;;;;;;;9.55;6.45;;;15.30;99.90;;;;;;4973376;28;20125;-65
2022/06/28 04:02:47;;;;;;;10.73;6.50;;;15.30;99.90;;;;;;4972950;28;20039;-64
2022/06/28 04:05:19;;;;;;;8.85;6.30;;;15.30;99.90;;;;;;4973269;28;20038;-65
2022/06/28 04:07:45;;;;;;;10.55;6.28;;;15.30;99.90;;;;;;4974027;28;20046;-67
2022/06/28 04:10:11;;;;;;;9.23;6.20;;;15.30;99.90;;;;;;4972986;28;20031;-65
2022/06/28 04:12:38;;;;;;;9.30;6.60;;;15.30;99.90;;;;;;4973654;28;20065;-65
2022/06/28 04:15:16;;;;;;;11.43;7.03;;;15.30;99.90;;;;;;4972892;28;20027;-65
2022/06/28 04:17:45;;;;;;;10.75;6.57;;;15.30;99.90;;;;;;4972010;28;20049;-63
2022/06/28 04:20:29;;;;;;;13.82;6.80;;;15.40;99.90;;;;;;4974244;28;20455;-64
2022/06/28 04:23:01;;;;;;;15.93;7.18;;;15.40;99.90;;;;;;4988930;28;20034;-64
2022/06/28 04:25:27;;;;;;;10.85;6.80;;;15.30;99.90;;;;;;4974296;28;20137;-65
2022/06/28 04:27:56;;;;;;;10.35;6.55;;;15.30;99.90;;;;;;4972091;28;20030;-65
2022/06/28 04:30:25;;;;;;;12.45;8.02;;;15.30;99.90;;;;;;4974078;28;20031;-65
2022/06/28 04:32:58;;;;;;;11.15;6.75;;;15.30;99.90;;;;;;4972972;28;20359;-64
2022/06/28 04:35:27;;;;;;;10.45;7.03;;;15.40;99.90;;;;;;4972420;28;20027;-65
2022/06/28 04:37:54;;;;;;;10.50;6.35;;;15.40;99.90;;;;;;4972012;28;20498;-65
2022/06/28 04:40:46;;;;;;;8.65;5.93;;;15.50;99.90;;;;;;4972252;28;20472;-64
2022/06/28 04:43:27;;;;;;;10.07;6.40;;;15.50;99.90;;;;;;4958166;28;20054;-64
2022/06/28 04:45:53;;;;;;;13.05;6.13;;;15.60;99.90;;;;;;4972531;28;20041;-65
2022/06/28 04:48:20;;;;;;;9.75;6.32;;;15.60;99.90;;;;;;4972480;28;20435;-64
2022/06/28 04:50:46;;;;;;;11.13;6.47;;;15.60;99.90;;;;;;4972091;28;20031;-63
2022/06/28 04:53:15;;;;;;;9.95;6.97;;;15.60;99.90;;;;;;4972168;28;20051;-64
2022/06/28 04:55:47;;;;;;;8.80;6.15;;;15.60;99.90;;;;;;4972134;28;20403;-65
2022/06/28 04:58:12;;;;;;;10.05;6.60;;;15.70;99.90;;;;;;4971679;28;20031;-64
2022/06/28 05:00:38;;;;;;;9.65;6.47;;;15.70;99.90;;;;;;4972853;28;20094;-65
2022/06/28 05:03:11;;;;;;;11.48;6.65;;;15.80;99.90;;;;;;4971769;28;20039;-65
2022/06/28 05:05:56;;;;;;;11.18;6.75;;;15.80;99.90;;;;;;4972904;28;20057;-64
2022/06/28 05:08:23;;;;;;;10.77;6.28;;;15.90;99.90;;;;;;4971790;28;20034;-65
2022/06/28 05:11:07;;;;;;;9.98;6.28;;;15.90;99.90;;;;;;4973545;28;20247;-65
2022/06/28 05:13:49;;;;;;;11.05;6.30;;;16.00;99.90;;;;;;4973263;28;20046;-66
2022/06/28 05:16:16;;;;;;;8.25;6.25;;;16.00;99.90;;;;;;4971956;28;20103;-65
2022/06/28 05:18:44;;;;;;;12.70;7.60;;;16.00;99.90;;;;;;4972368;28;20046;-65
2022/06/28 05:21:13;;;;;;;;;;;16.10;99.90;;;;;;4972153;28;20081;-65
2022/06/28 05:23:41;;;;;;;11.93;7.00;;;16.20;99.90;;;;;;4972074;28;19910;-65
2022/06/28 05:26:35;;;;;;;21.67;6.90;;;16.20;99.90;;;;;;4971847;28;20094;-64
2022/06/28 05:29:19;;;;;;;15.02;7.28;;;16.30;99.90;;;;;;4971218;28;20035;-65
2022/06/28 05:31:45;;;;;;;10.77;6.28;;;16.40;99.90;;;;;;4971826;28;20031;-66
2022/06/28 05:34:11;;;;;;;11.77;5.85;;;16.40;99.90;;;;;;4971455;28;20440;-64
2022/06/28 05:36:38;;;;;;;9.10;5.65;;;16.50;99.90;;;;;;4971675;28;20496;-65
2022/06/28 05:39:06;;;;;;;9.82;5.82;;;16.60;99.90;;;;;;4971204;28;20054;-64
2022/06/28 05:41:32;;;;;;;9.40;5.50;;;16.50;99.90;;;;;;4972999;28;20440;-65
2022/06/28 05:44:00;;;;;;;9.57;4.93;;;16.60;99.90;;;;;;4971396;28;20037;-66
2022/06/28 05:46:28;;;;;;;10.80;5.50;;;16.60;99.90;;;;;;4971632;28;20080;-64
2022/06/28 05:48:54;;;;;;;9.23;5.03;;;16.70;99.90;;;;;;4971486;28;20035;-65
2022/06/28 05:51:20;;;;;;;8.77;5.00;;;16.70;99.90;;;;;;4971990;28;20031;-65
2022/06/28 05:53:47;;;;;;;12.85;6.00;;;16.70;99.90;;;;;;4971736;28;20041;-65
2022/06/28 05:56:13;;;;;;;6.82;4.65;;;16.70;99.90;;;;;;4973041;28;20031;-65
2022/06/28 05:58:39;;;;;;;11.05;4.93;;;16.80;99.90;;;;;;4971166;28;20543;-65
2022/06/28 06:01:05;;;;;;;10.07;5.00;;;16.80;99.90;;;;;;4973148;28;20022;-65
2022/06/28 06:03:33;;;;;;;11.65;5.30;;;16.80;99.90;;;;;;4971465;28;20450;-64
2022/06/28 06:06:00;;;;;;;11.18;5.07;;;16.80;99.90;;;;;;4971515;28;20058;-64
2022/06/28 06:08:26;;;;;;;11.18;4.75;;;16.80;99.90;;;;;;4971069;28;20038;-65
2022/06/28 06:10:52;;;;;;;10.45;4.50;;;16.80;99.90;;;;;;4971445;28;20443;-66
2022/06/28 06:13:17;;;;;;;12.73;5.28;;;16.80;99.90;;;;;;4970409;28;20031;-66
2022/06/28 06:15:43;;;;;;;9.52;4.80;;;16.90;99.90;;;;;;4972685;28;20130;-66
2022/06/28 06:18:10;;;;;;;9.93;4.60;;;16.90;99.90;;;;;;4970786;28;20531;-65
2022/06/28 06:20:35;;;;;;;8.93;5.00;;;17.00;99.90;;;;;;4976120;28;20134;-65
2022/06/28 06:23:01;;;;;;;11.32;4.70;;;17.00;99.90;;;;;;4971098;28;20050;-68
2022/06/28 06:25:47;;;;;;;8.63;4.70;;;17.00;99.90;;;;;;4960889;28;20393;-66
2022/06/28 06:28:14;;;;;;;13.27;5.32;;;17.10;99.90;;;;;;4971826;28;20081;-65
2022/06/28 06:30:40;;;;;;;11.65;5.35;;;17.10;99.90;;;;;;4971004;28;20034;-65
2022/06/28 06:33:15;;;;;;;9.77;4.47;;;17.10;99.90;;;;;;4970805;28;20034;-65
2022/06/28 06:36:00;;;;;;;15.15;5.07;;;17.10;99.90;;;;;;4972049;28;20077;-65
2022/06/28 06:38:26;;;;;;;32.83;6.07;;;17.20;99.90;;;;;;4970617;28;20035;-64
2022/06/28 06:40:55;;;;;;;15.45;4.65;;;17.20;99.90;;;;;;4986895;28;20491;-65
2022/06/28 06:43:22;;;;;;;15.05;5.30;;;17.20;99.90;;;;;;4970447;28;20495;-66
2022/06/28 06:45:54;;;;;;;11.45;4.80;;;17.20;99.90;;;;;;4970494;28;20408;-65
2022/06/28 06:48:21;;;;;;;11.90;4.75;;;17.30;99.90;;;;;;4971908;28;20121;-65
2022/06/28 06:50:48;;;;;;;10.65;4.40;;;17.30;99.90;;;;;;4970440;28;20034;-65
2022/06/28 06:53:14;;;;;;;15.32;5.10;;;17.40;99.90;;;;;;4971545;28;20026;-66
2022/06/28 06:55:41;;;;;;;25.25;4.90;;;17.30;99.90;;;;;;4970417;28;20038;-65
2022/06/28 06:58:07;;;;;;;15.23;4.57;;;17.40;99.90;;;;;;4969665;28;20399;-65
2022/06/28 07:00:34;;;;;;;16.02;5.05;;;17.50;99.90;;;;;;4970177;28;20026;-65
2022/06/28 07:03:02;;;;;;;29.92;5.45;;;17.50;99.90;;;;;;4970094;28;20117;-65
2022/06/28 07:05:29;;;;;;;14.57;4.53;;;17.50;99.90;;;;;;4971722;28;20111;-65
2022/06/28 07:07:55;;;;;;;18.00;4.93;;;17.50;99.90;;;;;;4969915;28;20031;-66
2022/06/28 07:10:29;;;;;;;19.00;5.45;;;17.50;99.90;;;;;;4969952;28;20031;-65
2022/06/28 07:12:55;;;;;;;14.55;4.20;;;17.50;99.90;;;;;;4969656;28;20111;-66
2022/06/28 07:15:20;;;;;;;10.93;4.32;;;17.60;99.90;;;;;;4970100;28;20069;-65
2022/06/28 07:17:46;;;;;;;9.90;3.95;;;17.70;99.90;;;;;;4970937;28;20106;-65
2022/06/28 07:20:12;;;;;;;10.05;3.90;;;17.60;99.90;;;;;;4970765;28;20044;-64
2022/06/28 07:22:38;;;;;;;22.02;5.13;;;17.70;99.90;;;;;;4971144;28;20041;-65
2022/06/28 07:25:09;;;;;;;12.93;4.70;;;17.70;99.90;;;;;;4971698;28;20372;-65
2022/06/28 07:27:35;;;;;;;12.30;4.50;;;17.80;99.90;;;;;;4974577;28;20043;-65
2022/06/28 07:30:01;;;;;;;10.77;4.40;;;17.80;99.90;;;;;;4969473;28;20126;-65
2022/06/28 07:32:27;;;;;;;10.50;3.85;;;17.80;99.90;;;;;;4953711;29;20036;-65
2022/06/28 07:34:53;;;;;;;9.13;3.65;;;17.80;99.90;;;;;;4954559;29;20156;-65
2022/06/28 07:37:19;;;;;;;10.52;4.20;;;17.90;99.90;;;;;;4953363;28;20035;-64
2022/06/28 07:39:47;;;;;;;12.27;4.32;;;17.90;99.90;;;;;;4954816;29;20093;-65
2022/06/28 07:42:33;;;;;;;9.07;3.40;;;17.90;99.90;;;;;;4963535;28;20926;-65
2022/06/28 07:45:02;;;;;;;5.28;2.45;;;17.90;99.90;;;;;;4954547;28;20047;-65
2022/06/28 07:47:28;;;;;;;8.02;3.28;;;18.00;99.90;;;;;;4969476;28;20381;-66
2022/06/28 07:52:38;;;;;;;8.45;2.88;;;18.00;99.90;;;;;;4972278;28;20154;-65
2022/06/28 07:55:09;;;;;;;8.88;2.67;;;18.00;99.90;;;;;;4973453;28;20038;-64
2022/06/28 07:57:47;;;;;;;7.40;3.08;;;18.00;99.90;;;;;;4972700;28;20039;-65
2022/06/28 08:00:18;;;;;;;7.32;2.78;;;18.10;99.90;;;;;;4973159;28;20035;-64
2022/06/28 08:02:55;;;;;;;5.50;2.83;;;18.10;99.90;;;;;;4972690;28;20526;-63
2022/06/28 08:05:22;;;;;;;6.10;2.50;;;18.10;99.90;;;;;;4974095;28;20050;-63
2022/06/28 08:07:49;;;;;;;7.97;2.40;;;18.20;99.90;;;;;;4972392;28;20395;-64
2022/06/28 08:10:16;;;;;;;6.85;2.60;;;18.20;99.90;;;;;;4973308;28;20529;-64
2022/06/28 08:12:43;;;;;;;8.63;2.53;;;18.20;99.90;;;;;;4972407;28;20034;-63
2022/06/28 08:15:12;;;;;;;8.00;2.75;;;18.20;99.90;;;;;;4974194;28;20026;-64
2022/06/28 08:17:38;;;;;;;6.55;2.55;;;18.30;99.90;;;;;;4974329;28;20023;-64
2022/06/28 08:20:05;;;;;;;9.13;3.47;;;18.30;99.90;;;;;;4973023;28;20401;-63
2022/06/28 08:22:31;;;;;;;9.63;3.58;;;18.40;99.90;;;;;;4973083;28;20484;-64
2022/06/28 08:24:57;;;;;;;7.68;2.70;;;18.40;99.90;;;;;;4972951;28;20396;-65
2022/06/28 08:27:23;;;;;;;5.82;2.30;;;18.40;99.90;;;;;;4972389;28;20038;-65
2022/06/28 08:29:49;;;;;;;5.78;2.58;;;18.30;99.90;;;;;;4973130;28;20480;-64
2022/06/28 08:32:20;;;;;;;5.20;1.95;;;18.40;99.90;;;;;;4974174;28;20125;-64
2022/06/28 08:34:47;;;;;;;6.03;2.53;;;18.40;99.90;;;;;;4972732;28;20031;-65
2022/06/28 08:37:13;;;;;;;4.60;2.00;;;18.40;99.90;;;;;;4974148;28;20037;-64
2022/06/28 08:39:39;;;;;;;6.32;2.20;;;18.40;99.90;;;;;;4974033;28;20034;-64
2022/06/28 08:42:06;;;;;;;6.32;2.13;;;18.50;99.90;;;;;;4974488;28;20038;-64
2022/06/28 08:44:36;;;;;;;8.10;2.10;;;18.60;99.90;;;;;;4973773;28;20035;-63
2022/06/28 08:47:03;;;;;;;7.32;1.80;;;18.70;99.70;;;;;;4974158;28;20039;-65
2022/06/28 08:49:39;;;;;;;3.88;1.67;;;18.70;99.50;;;;;;4973722;28;20037;-64
2022/06/28 08:52:07;;;;;;;6.07;1.77;;;18.70;99.00;;;;;;4974321;28;20058;-65
2022/06/28 08:54:34;;;;;;;6.35;1.80;;;18.70;99.00;;;;;;4973623;28;20027;-64
2022/06/28 08:57:00;;;;;;;5.70;1.50;;;18.70;99.20;;;;;;4973681;28;20087;-64
2022/06/28 08:59:26;;;;;;;5.10;2.00;;;18.70;99.20;;;;;;4972972;28;20027;-64
2022/06/28 09:01:53;;;;;;;8.55;1.75;;;18.70;99.20;;;;;;4973504;28;20035;-63
2022/06/28 09:04:19;;;;;;;3.95;1.80;;;18.70;98.90;;;;;;4973478;28;20093;-66
2022/06/28 09:06:45;;;;;;;7.30;1.38;;;18.80;98.70;;;;;;4973429;28;20031;-64
2022/06/28 09:09:11;;;;;;;4.78;1.30;;;18.80;97.80;;;;;;4973052;28;20109;-64
2022/06/28 09:11:44;;;;;;;3.78;1.20;;;18.80;97.80;;;;;;4973450;28;20448;-63
2022/06/28 09:14:30;;;;;;;3.03;1.17;;;18.80;97.90;;;;;;4972767;28;20031;-64
2022/06/28 09:16:58;;;;;;;3.20;1.30;;;18.90;98.10;;;;;;4973578;28;20097;-64
2022/06/28 09:19:38;;;;;;;4.40;1.70;;;18.90;98.40;;;;;;4973080;28;20027;-64
2022/06/28 09:22:05;;;;;;;5.03;2.03;;;18.90;98.10;;;;;;4973333;28;20085;-64
2022/06/28 09:24:32;;;;;;;4.65;2.20;;;19.00;98.10;;;;;;4973190;28;20030;-64
2022/06/28 09:27:06;;;;;;;5.40;2.00;;;19.00;98.40;;;;;;4972780;28;20048;-64
2022/06/28 09:29:49;;;;;;;4.63;2.20;;;19.00;98.60;;;;;;4972497;28;20523;-64
2022/06/28 09:32:15;;;;;;;6.90;2.65;;;19.10;97.80;;;;;;4973214;28;20031;-64
2022/06/28 09:34:56;;;;;;;10.02;4.20;;;19.20;97.40;;;;;;4973070;28;20038;-64
2022/06/28 09:37:34;;;;;;;10.65;4.47;;;19.20;97.40;;;;;;4973037;28;20138;-65
2022/06/28 09:40:31;;;;;;;6.30;2.63;;;19.20;97.10;;;;;;4973153;28;20452;-64
2022/06/28 09:43:12;;;;;;;5.05;1.63;;;19.30;97.00;;;;;;4967846;28;20053;-65
2022/06/28 09:45:43;;;;;;;4.03;1.65;;;19.30;97.10;;;;;;4972669;28;20093;-65
2022/06/28 09:48:14;;;;;;;5.15;1.40;;;19.30;97.40;;;;;;4972362;28;20133;-64
2022/06/28 09:50:40;;;;;;;4.35;1.50;;;19.40;97.00;;;;;;4983486;23;20047;-84
2022/06/28 09:53:15;;;;;;;4.43;1.23;;;19.40;96.70;;;;;;4950340;28;20463;-82
2022/06/28 09:55:42;;;;;;;3.85;1.35;;;19.50;96.00;;;;;;4951371;29;20042;-80
2022/06/28 09:58:09;;;;;;;4.63;1.30;;;19.50;96.00;;;;;;4950967;29;20065;-80
2022/06/28 10:00:39;;;;;;;3.58;1.00;;;19.50;95.90;;;;;;4951805;28;20047;-80
2022/06/28 10:03:06;;;;;;;4.97;1.45;;;19.50;95.60;;;;;;4953103;29;20457;-80
2022/06/28 10:05:32;;;;;;;2.72;1.20;;;19.50;95.90;;;;;;4952699;29;20066;-80
2022/06/28 10:07:58;;;;;;;3.75;1.20;;;19.50;96.10;;;;;;4951359;29;20433;-80
2022/06/28 10:10:24;;;;;;;3.83;1.23;;;19.60;96.30;;;;;;4951002;28;20035;-80
2022/06/28 10:15:44;;;;;;;6.55;2.22;;;19.70;96.30;;;;;;4951903;28;20031;-80
2022/06/28 10:18:17;;;;;;;5.25;1.80;;;19.80;96.10;;;;;;4952924;29;20515;-80
2022/06/28 10:20:44;;;;;;;7.05;2.05;;;19.80;96.20;;;;;;4952285;28;20101;-80
2022/06/28 10:23:37;;;;;;;5.90;1.63;;;19.90;95.40;;;;;;4952543;29;20027;-79
2022/06/28 10:26:09;;;;;;;5.75;1.88;;;19.90;95.60;;;;;;4950541;29;20143;-80
2022/06/28 10:28:54;;;;;;;4.03;1.80;;;19.90;95.90;;;;;;4952705;29;20119;-80
2022/06/28 10:31:23;;;;;;;4.10;1.40;;;19.80;96.10;;;;;;4952548;28;20042;-80
2022/06/28 10:33:50;;;;;;;;;;;19.80;96.30;;;;;;4952656;29;20141;-81
2022/06/28 10:36:18;;;;;;;4.45;1.70;;;19.90;96.10;;;;;;4951973;28;19910;-80
2022/06/28 10:39:09;;;;;;;3.50;1.42;;;19.80;95.80;;;;;;4951295;29;20082;-80
2022/06/28 10:41:40;;;;;;;5.75;2.00;;;20.00;95.50;;;;;;4952388;28;20024;-80
2022/06/28 10:44:16;;;;;;;8.68;3.03;;;20.10;95.10;;;;;;4951074;29;20114;-80
2022/06/28 10:47:01;;;;;;;8.95;3.30;;;20.10;94.50;;;;;;4934884;29;20042;-80
2022/06/28 10:49:43;;;;;;;8.23;2.90;;;20.20;94.10;;;;;;4952008;28;20034;-80
2022/06/28 10:52:10;;;;;;;6.38;2.13;;;20.20;94.30;;;;;;4952500;29;20135;-80
2022/06/28 10:54:37;;;;;;;4.50;1.67;;;20.10;94.40;;;;;;4951962;28;20054;-80
2022/06/28 10:57:45;;;;;;;5.30;1.60;;;20.10;94.60;;;;;;4951909;29;20130;-81
2022/06/28 11:00:23;;;;;;;5.32;1.20;;;20.20;93.70;;;;;;4946176;28;20384;-81
2022/06/28 11:02:52;;;;;;;4.50;1.38;;;20.20;93.00;;;;;;4952185;29;20043;-79
2022/06/28 11:05:19;;;;;;;;;;;20.40;92.60;;;;;;4952468;29;20037;-84
2022/06/28 11:07:58;;;;;;;2.03;0.85;;;20.40;92.60;;;;;;4952381;28;19910;-84
2022/06/28 11:10:24;;;;;;;1.75;0.82;;;20.40;92.20;;;;;;4951788;28;20039;-84
2022/06/28 11:12:50;;;;;;;3.28;1.00;;;20.40;91.80;;;;;;4952182;29;20078;-84
2022/06/28 11:15:35;;;;;;;2.25;1.10;;;20.40;92.20;;;;;;4949799;29;20117;-83
2022/06/28 11:18:01;;;;;;;3.75;1.02;;;20.40;92.20;;;;;;4951161;29;20370;-84
2022/06/28 11:20:29;;;;;;;2.88;1.17;;;20.40;92.40;;;;;;4951505;28;20035;-85
2022/06/28 11:22:55;;;;;;;;;;;20.40;92.20;;;;;;4951385;29;20400;-84
2022/06/28 11:25:23;;;;;;;4.25;1.50;;;20.50;91.10;;;;;;4950526;28;20371;-85
2022/06/28 11:27:57;;;;;;;6.60;1.40;;;20.50;91.00;;;;;;4952009;29;20027;-84
2022/06/28 11:30:29;;;;;;;5.90;1.15;;;20.60;90.10;;;;;;4951245;28;20082;-84
2022/06/28 11:32:57;;;;;;;6.97;2.55;;;20.70;89.80;;;;;;4952301;29;20065;-85
2022/06/28 11:35:25;;;;;;;4.47;2.10;;;20.80;90.00;;;;;;4950710;29;20034;-84
2022/06/28 11:37:57;;;;;;;5.07;1.50;;;20.80;90.40;;;;;;4951035;29;20027;-84
2022/06/28 11:40:24;;;;;;;4.55;1.08;;;20.80;90.60;;;;;;4951668;28;20066;-85
2022/06/28 11:43:05;;;;;;;4.20;1.23;;;20.90;90.30;;;;;;4953222;28;20050;-84
2022/06/28 11:45:33;;;;;;;4.40;1.35;;;20.90;90.50;;;;;;4957077;28;20479;-85
2022/06/28 11:48:08;;;;;;;4.05;1.42;;;20.90;90.70;;;;;;4958612;28;20027;-85
2022/06/28 11:50:42;;;;;;;3.50;1.05;;;20.80;90.70;;;;;;4954636;28;20031;-80
2022/06/28 11:53:09;;;;;;;5.13;1.05;;;20.80;90.50;;;;;;4934310;29;20098;-84
2022/06/28 11:55:39;;;;;;;2.88;1.30;;;20.70;90.10;;;;;;4951681;29;20074;-84
2022/06/28 11:58:13;;;;;;;4.82;1.77;;;20.80;89.70;;;;;;4951707;28;20082;-84
2022/06/28 12:00:39;;;;;;;4.93;1.40;;;20.80;90.00;;;;;;4948934;28;20476;-84
2022/06/28 12:03:05;;;;;;;4.05;1.67;;;20.80;89.60;;;;;;4949983;29;20042;-84
2022/06/28 12:05:35;;;;;;;6.25;2.63;;;20.90;89.60;;;;;;4950038;29;20039;-84
2022/06/28 12:08:02;;;;;;;4.10;1.40;;;21.10;90.00;;;;;;4951453;29;20065;-84
2022/06/28 12:10:31;;;;;;;3.60;1.63;;;21.10;89.50;;;;;;4951384;28;20476;-84
2022/06/28 12:12:58;;;;;;;4.25;1.00;;;21.20;87.20;;;;;;4954701;29;20062;-85
2022/06/28 12:15:31;;;;;;;4.80;1.17;;;21.20;87.10;;;;;;4952667;29;20031;-85
2022/06/28 12:18:02;;;;;;;3.22;1.38;;;21.40;87.60;;;;;;4954278;28;20042;-85
2022/06/28 12:20:28;;;;;;;4.18;1.20;;;21.50;87.40;;;;;;4952927;28;20051;-85
2022/06/28 12:23:02;;;;;;;2.95;1.45;;;21.60;86.50;;;;;;4937735;29;20031;-85
2022/06/28 12:25:28;;;;;;;3.35;1.20;;;21.70;85.30;;;;;;4954501;29;20498;-85
2022/06/28 12:27:54;;;;;;;3.95;1.17;;;21.90;84.00;;;;;;4936839;29;20071;-85
2022/06/28 12:30:20;;;;;;;5.38;2.03;;;22.00;81.40;;;;;;4951759;28;20034;-85
2022/06/28 12:32:46;;;;;;;2.65;1.20;;;22.10;81.00;;;;;;4954571;29;20362;-84
2022/06/28 12:35:12;;;;;;;3.20;1.00;;;22.20;80.60;;;;;;4953050;29;20083;-85
2022/06/28 12:37:38;;;;;;;3.20;1.13;;;22.30;80.80;;;;;;4954191;29;20031;-85
2022/06/28 12:40:06;;;;;;;1.63;0.75;;;22.30;81.60;;;;;;4952557;28;20034;-85
2022/06/28 12:42:32;;;;;;;3.60;0.95;;;22.50;81.30;;;;;;4954495;29;20075;-85
2022/06/28 12:45:02;;;;;;;2.95;1.20;;;22.70;80.60;;;;;;4951821;29;20027;-85
2022/06/28 12:47:40;;;;;;;3.13;1.20;;;22.80;80.00;;;;;;4952947;29;20023;-82
2022/06/28 12:50:09;;;;;;;3.55;1.00;;;22.90;81.70;;;;;;4952192;28;20472;-83
2022/06/28 12:52:36;;;;;;;2.97;1.00;;;23.00;80.90;;;;;;4936781;29;20415;-83
2022/06/28 12:55:03;;;;;;;4.28;1.40;;;23.10;79.80;;;;;;4962370;28;20027;-83
2022/06/28 12:57:28;;;;;;;2.67;1.17;;;23.20;80.20;;;;;;4969802;28;20062;-83
2022/06/28 12:59:55;;;;;;;7.10;1.00;;;23.40;79.30;;;;;;4971852;28;20030;-83
2022/06/28 13:02:21;;;;;;;4.75;1.10;;;23.50;78.40;;;;;;4972276;28;20073;-83
2022/06/28 13:04:47;;;;;;;4.72;1.30;;;23.60;78.70;;;;;;4973037;28;20439;-83
2022/06/28 13:07:19;;;;;;;4.03;1.10;;;23.60;78.80;;;;;;4972720;28;20035;-83
2022/06/28 13:09:46;;;;;;;3.03;1.10;;;23.50;78.50;;;;;;4971116;28;20403;-83
2022/06/28 13:12:14;;;;;;;4.85;1.17;;;23.60;78.40;;;;;;4973229;28;20423;-82
2022/06/28 13:14:41;;;;;;;3.78;1.23;;;23.50;76.20;;;;;;4957484;28;20042;-83